createdAt,value
2022-12-18T00:01:39.692Z,7.47
2022-12-18T00:04:26.114Z,7.30
2022-12-18T00:07:11.003Z,8.75
2022-12-18T00:09:56.031Z,6.32
2022-12-18T00:12:41.026Z,7.07
2022-12-18T00:15:26.189Z,7.88
2022-12-18T00:18:13.790Z,8.40
2022-12-18T00:21:02.915Z,6.82
2022-12-18T00:23:49.788Z,7.20
2022-12-18T00:26:37.854Z,8.00
2022-12-18T00:29:23.285Z,8.00
2022-12-18T00:32:08.348Z,7.60
2022-12-18T00:34:53.414Z,6.40
2022-12-18T00:37:38.693Z,8.68
2022-12-18T00:40:23.883Z,7.53
2022-12-18T00:43:10.161Z,5.53
2022-12-18T00:45:55.673Z,7.72
2022-12-18T00:48:40.394Z,7.75
2022-12-18T00:51:25.953Z,8.05
2022-12-18T00:54:11.010Z,6.97
2022-12-18T00:56:56.132Z,7.70
2022-12-18T00:59:41.291Z,6.55
2022-12-18T01:02:26.544Z,6.15
2022-12-18T01:05:13.533Z,6.28
2022-12-18T01:07:59.338Z,4.77
2022-12-18T01:10:44.474Z,5.93
2022-12-18T01:13:30.015Z,5.65
2022-12-18T01:16:17.774Z,6.15
2022-12-18T01:19:02.786Z,5.00
2022-12-18T01:21:47.898Z,4.83
2022-12-18T01:24:33.033Z,6.30
2022-12-18T01:27:18.315Z,6.50
2022-12-18T01:30:03.951Z,6.95
2022-12-18T01:32:48.923Z,4.75
2022-12-18T01:35:33.792Z,5.80
2022-12-18T01:38:18.938Z,6.13
2022-12-18T01:41:03.700Z,6.22
2022-12-18T01:44:00.200Z,7.18
2022-12-18T01:46:45.023Z,5.93
2022-12-18T01:49:30.295Z,5.70
2022-12-18T01:52:16.281Z,5.55
2022-12-18T01:55:04.158Z,5.82
2022-12-18T01:57:52.781Z,6.53
2022-12-18T02:00:37.809Z,6.53
2022-12-18T02:03:22.784Z,6.70
2022-12-18T02:06:34.183Z,6.90
2022-12-18T02:09:27.548Z,5.28
2022-12-18T02:12:22.217Z,5.07
2022-12-18T02:15:19.978Z,5.38
2022-12-18T02:18:14.252Z,4.93
2022-12-18T02:21:09.574Z,5.32
2022-12-18T02:24:53.074Z,5.07
2022-12-18T02:27:40.289Z,5.53
2022-12-18T02:30:26.487Z,5.88
2022-12-18T02:33:13.306Z,5.73
2022-12-18T02:36:00.095Z,6.35
2022-12-18T02:38:47.344Z,5.50
2022-12-18T02:41:32.582Z,5.20
2022-12-18T02:44:17.318Z,6.35
2022-12-18T02:47:03.310Z,5.07
2022-12-18T02:50:35.487Z,5.38
2022-12-18T02:53:34.121Z,4.85
2022-12-18T02:56:26.100Z,6.20
2022-12-18T02:59:19.764Z,5.40
2022-12-18T03:02:24.723Z,5.70
2022-12-18T03:05:18.372Z,5.47
2022-12-18T03:08:09.275Z,4.65
2022-12-18T03:11:03.262Z,4.60
2022-12-18T03:13:57.450Z,4.53
2022-12-18T03:16:43.174Z,4.90
2022-12-18T03:19:30.447Z,5.53
2022-12-18T03:22:17.039Z,5.25
2022-12-18T03:25:06.029Z,6.03
2022-12-18T03:27:57.362Z,4.95
2022-12-18T03:30:46.531Z,4.97
2022-12-18T03:33:38.624Z,5.57
2022-12-18T03:36:24.519Z,5.25
2022-12-18T03:39:10.006Z,5.10
2022-12-18T03:42:22.475Z,4.32
2022-12-18T03:45:13.080Z,4.07
2022-12-18T03:48:07.049Z,2.60
2022-12-18T03:51:09.357Z,5.78
2022-12-18T03:54:04.836Z,4.63
2022-12-18T03:57:05.670Z,5.70
2022-12-18T03:59:56.580Z,4.40
2022-12-18T04:02:49.185Z,4.43
2022-12-18T04:05:35.430Z,1.30
2022-12-18T04:08:22.582Z,5.43
2022-12-18T04:11:07.842Z,4.53
2022-12-18T04:13:57.712Z,4.83
2022-12-18T04:16:42.811Z,5.53
2022-12-18T04:19:27.799Z,1.15
2022-12-18T04:22:12.905Z,3.10
2022-12-18T04:24:58.199Z,5.00
2022-12-18T04:27:43.263Z,5.40
2022-12-18T04:30:28.361Z,5.55
2022-12-18T04:33:14.304Z,5.50
2022-12-18T04:35:59.307Z,5.28
2022-12-18T04:38:44.579Z,4.57
2022-12-18T04:41:29.398Z,2.63
2022-12-18T04:44:15.116Z,1.48
2022-12-18T04:46:59.964Z,4.03
2022-12-18T04:49:45.001Z,4.20
2022-12-18T04:52:33.167Z,2.95
2022-12-18T04:55:18.156Z,3.30
2022-12-18T04:58:03.138Z,5.40
2022-12-18T05:00:48.180Z,4.35
2022-12-18T05:03:33.606Z,2.00
2022-12-18T05:06:18.596Z,2.22
2022-12-18T05:09:03.979Z,4.20
2022-12-18T05:11:49.092Z,5.20
2022-12-18T05:14:34.274Z,5.03
2022-12-18T05:17:19.568Z,3.95
2022-12-18T05:20:04.915Z,4.25
2022-12-18T05:22:50.448Z,2.33
2022-12-18T05:25:35.434Z,3.40
2022-12-18T05:28:21.178Z,4.78
2022-12-18T05:31:06.731Z,4.40
2022-12-18T05:33:51.737Z,2.58
2022-12-18T05:36:36.960Z,2.93
2022-12-18T05:39:22.130Z,4.80
2022-12-18T05:42:06.984Z,5.07
2022-12-18T05:44:52.157Z,1.65
2022-12-18T05:47:37.009Z,1.95
2022-12-18T05:50:22.089Z,4.67
2022-12-18T05:53:07.918Z,5.13
2022-12-18T05:55:53.016Z,5.15
2022-12-18T05:58:38.555Z,1.52
2022-12-18T06:01:26.245Z,5.43
2022-12-18T06:04:11.515Z,5.97
2022-12-18T06:06:56.609Z,1.75
2022-12-18T06:09:41.467Z,1.55
2022-12-18T06:12:26.960Z,4.90
2022-12-18T06:15:11.764Z,4.88
2022-12-18T06:17:56.874Z,4.53
2022-12-18T06:20:42.311Z,2.90
2022-12-18T06:23:27.638Z,1.35
2022-12-18T06:26:14.151Z,5.07
2022-12-18T06:28:59.393Z,2.33
2022-12-18T06:31:44.523Z,4.93
2022-12-18T06:34:29.208Z,5.20
2022-12-18T06:37:14.393Z,2.63
2022-12-18T06:39:59.301Z,1.35
2022-12-18T06:42:44.436Z,3.45
2022-12-18T06:45:29.605Z,3.87
2022-12-18T06:48:14.714Z,3.25
2022-12-18T06:51:00.236Z,6.35
2022-12-18T06:53:45.388Z,3.05
2022-12-18T06:56:31.108Z,5.70
2022-12-18T06:59:16.222Z,4.43
2022-12-18T07:02:01.462Z,3.45
2022-12-18T07:04:46.538Z,2.58
2022-12-18T07:07:31.474Z,5.25
2022-12-18T07:10:16.718Z,4.50
2022-12-18T07:13:01.463Z,5.50
2022-12-18T07:15:46.599Z,3.33
2022-12-18T07:18:31.660Z,1.00
2022-12-18T07:21:19.566Z,2.42
2022-12-18T07:24:05.435Z,3.33
2022-12-18T07:26:50.090Z,3.03
2022-12-18T07:29:35.158Z,2.05
2022-12-18T07:32:20.248Z,3.03
2022-12-18T07:35:05.347Z,3.95
2022-12-18T07:37:50.318Z,3.90
2022-12-18T07:40:35.453Z,4.80
2022-12-18T07:43:20.655Z,4.38
2022-12-18T07:46:06.465Z,4.90
2022-12-18T07:48:51.253Z,5.13
2022-12-18T07:51:36.327Z,5.95
2022-12-18T07:54:21.514Z,4.97
2022-12-18T07:57:16.488Z,5.55
2022-12-18T08:00:13.179Z,2.88
2022-12-18T08:02:58.766Z,5.60
2022-12-18T08:05:44.195Z,6.50
2022-12-18T08:08:30.246Z,4.33
2022-12-18T08:11:15.405Z,4.82
2022-12-18T08:14:00.305Z,4.55
2022-12-18T08:16:45.509Z,2.55
2022-12-18T08:19:30.339Z,6.15
2022-12-18T08:22:15.345Z,5.50
2022-12-18T08:25:00.624Z,1.45
2022-12-18T08:27:45.324Z,4.80
2022-12-18T08:30:30.525Z,6.05
2022-12-18T08:33:15.492Z,2.80
2022-12-18T08:36:01.772Z,7.00
2022-12-18T08:38:47.454Z,4.07
2022-12-18T08:41:32.189Z,4.30
2022-12-18T08:44:36.065Z,2.30
2022-12-18T08:47:21.059Z,2.47
2022-12-18T08:50:06.952Z,3.87
2022-12-18T08:52:52.365Z,7.22
2022-12-18T08:55:37.257Z,4.22
2022-12-18T08:58:22.553Z,7.13
2022-12-18T09:01:10.511Z,3.33
2022-12-18T09:03:55.611Z,4.27
2022-12-18T09:06:41.046Z,6.57
2022-12-18T09:09:25.875Z,6.57
2022-12-18T09:12:10.755Z,2.42
2022-12-18T09:14:57.116Z,3.55
2022-12-18T09:17:42.058Z,5.03
2022-12-18T09:20:29.135Z,3.13
2022-12-18T09:23:14.525Z,5.75
2022-12-18T09:26:00.542Z,3.28
2022-12-18T09:28:45.596Z,5.65
2022-12-18T09:31:30.934Z,4.20
2022-12-18T09:34:16.657Z,6.90
2022-12-18T09:37:01.650Z,4.45
2022-12-18T09:39:46.845Z,5.07
2022-12-18T09:42:33.200Z,3.25
2022-12-18T09:45:18.905Z,4.03
2022-12-18T09:48:06.392Z,1.55
2022-12-18T09:50:56.761Z,6.15
2022-12-18T09:53:43.748Z,5.18
2022-12-18T09:56:33.267Z,6.75
2022-12-18T09:59:37.765Z,4.20
2022-12-18T10:02:25.995Z,3.50
2022-12-18T10:05:21.551Z,3.72
2022-12-18T10:08:22.265Z,2.38
2022-12-18T10:11:29.338Z,6.60
2022-12-18T10:14:47.768Z,3.80
2022-12-18T10:17:46.670Z,4.45
2022-12-18T10:20:50.419Z,5.38
2022-12-18T10:23:52.515Z,2.58
2022-12-18T10:26:37.506Z,4.80
2022-12-18T10:29:23.140Z,3.17
2022-12-18T10:32:15.009Z,2.45
2022-12-18T10:35:01.090Z,6.05
2022-12-18T10:38:05.786Z,3.63
2022-12-18T10:40:57.886Z,4.05
2022-12-18T10:43:42.756Z,5.70
2022-12-18T10:46:27.959Z,7.50
2022-12-18T10:49:29.826Z,5.57
2022-12-18T10:52:23.463Z,2.20
2022-12-18T10:55:17.657Z,4.45
2022-12-18T10:58:35.736Z,4.07
2022-12-18T11:01:21.559Z,4.13
2022-12-18T11:04:10.014Z,4.43
2022-12-18T11:07:02.003Z,5.65
2022-12-18T11:10:01.233Z,5.25
2022-12-18T11:12:46.967Z,4.47
2022-12-18T11:15:32.090Z,6.50
2022-12-18T11:18:38.932Z,4.00
2022-12-18T11:21:23.932Z,4.53
2022-12-18T11:24:21.367Z,4.40
2022-12-18T11:27:18.170Z,4.07
2022-12-18T11:30:27.650Z,4.90
2022-12-18T11:33:24.520Z,5.63
2022-12-18T11:36:11.234Z,4.43
2022-12-18T11:39:00.033Z,9.20
2022-12-18T11:42:12.997Z,4.77
2022-12-18T11:45:03.198Z,4.18
2022-12-18T11:48:03.370Z,6.18
2022-12-18T11:50:57.334Z,4.32
2022-12-18T11:53:42.309Z,7.28
2022-12-18T11:56:29.903Z,2.93
2022-12-18T11:59:20.847Z,6.15
2022-12-18T12:02:31.890Z,4.65
2022-12-18T12:05:33.934Z,4.43
2022-12-18T12:08:24.895Z,5.07
2022-12-18T12:11:40.341Z,4.97
2022-12-18T12:14:54.831Z,3.50
2022-12-18T12:17:54.063Z,4.55
2022-12-18T12:21:10.491Z,7.45
2022-12-18T12:24:22.735Z,5.03
2022-12-18T12:27:40.821Z,3.30
2022-12-18T12:30:40.699Z,3.00
2022-12-18T12:33:44.558Z,5.65
2022-12-18T12:36:43.758Z,6.97
2022-12-18T12:39:35.349Z,4.10
2022-12-18T12:42:50.883Z,4.63
2022-12-18T12:46:07.842Z,4.03
2022-12-18T12:48:57.082Z,7.40
2022-12-18T12:51:47.079Z,6.75
2022-12-18T12:54:34.603Z,5.53
2022-12-18T12:57:34.332Z,4.73
2022-12-18T13:00:20.831Z,5.68
2022-12-18T13:03:15.001Z,4.82
2022-12-18T13:06:33.065Z,4.28
2022-12-18T13:09:18.155Z,8.45
2022-12-18T13:12:30.021Z,3.53
2022-12-18T13:16:03.652Z,6.40
2022-12-18T13:18:51.068Z,5.90
2022-12-18T13:21:36.034Z,4.80
2022-12-18T13:24:27.221Z,5.85
2022-12-18T13:27:46.441Z,3.27
2022-12-18T13:30:32.597Z,6.45
2022-12-18T13:33:17.504Z,6.47
2022-12-18T13:36:27.946Z,5.82
2022-12-18T13:39:23.822Z,5.70
2022-12-18T13:42:32.775Z,7.17
2022-12-18T13:46:05.318Z,6.28
2022-12-18T13:48:57.854Z,6.93
2022-12-18T13:51:48.897Z,7.10
2022-12-18T13:54:40.699Z,8.25
2022-12-18T13:57:36.492Z,5.93
2022-12-18T14:00:29.405Z,8.20
2022-12-18T14:03:27.142Z,4.18
2022-12-18T14:06:14.013Z,7.72
2022-12-18T14:09:00.686Z,4.22
2022-12-18T14:11:51.049Z,6.73
2022-12-18T14:14:37.345Z,2.35
2022-12-18T14:17:23.782Z,4.85
2022-12-18T14:20:16.141Z,5.55
2022-12-18T14:23:01.272Z,5.45
2022-12-18T14:25:48.024Z,5.80
2022-12-18T14:28:33.055Z,6.60
2022-12-18T14:31:20.417Z,6.43
2022-12-18T14:34:05.428Z,5.50
2022-12-18T14:36:54.258Z,7.70
2022-12-18T14:39:39.473Z,6.20
2022-12-18T14:42:28.760Z,6.50
2022-12-18T14:45:46.869Z,7.57
2022-12-18T14:48:43.138Z,6.70
2022-12-18T14:51:30.583Z,5.50
2022-12-18T14:54:18.799Z,4.83
2022-12-18T14:57:20.015Z,5.05
2022-12-18T15:00:07.361Z,3.10
2022-12-18T15:02:56.326Z,7.10
2022-12-18T15:05:41.409Z,8.93
2022-12-18T15:08:35.509Z,5.43
2022-12-18T15:11:46.047Z,6.57
2022-12-18T15:14:30.769Z,8.43
2022-12-18T15:17:26.743Z,7.35
2022-12-18T15:20:11.776Z,8.65
2022-12-18T15:22:56.978Z,5.97
2022-12-18T15:25:42.013Z,6.30
2022-12-18T15:28:34.211Z,6.38
2022-12-18T15:31:38.210Z,7.57
2022-12-18T15:34:26.103Z,5.85
2022-12-18T15:37:11.150Z,4.77
2022-12-18T15:39:56.357Z,4.30
2022-12-18T15:43:00.238Z,5.57
2022-12-18T15:45:45.209Z,9.23
2022-12-18T15:48:30.139Z,6.65
2022-12-18T15:51:18.914Z,7.63
2022-12-18T15:54:07.318Z,7.47
2022-12-18T15:57:10.839Z,7.00
2022-12-18T15:59:58.826Z,6.10
2022-12-18T16:02:43.942Z,6.63
2022-12-18T16:05:30.570Z,7.00
2022-12-18T16:08:15.800Z,6.50
2022-12-18T16:11:00.935Z,8.52
2022-12-18T16:13:45.815Z,4.20
2022-12-18T16:16:30.962Z,6.43
2022-12-18T16:19:16.983Z,4.87
2022-12-18T16:22:04.906Z,5.65
2022-12-18T16:24:51.946Z,4.40
2022-12-18T16:27:37.410Z,3.58
2022-12-18T16:30:26.345Z,6.22
2022-12-18T16:33:11.853Z,5.40
2022-12-18T16:35:56.753Z,7.28
2022-12-18T16:38:41.926Z,8.70
2022-12-18T16:41:33.161Z,7.90
2022-12-18T16:44:19.328Z,6.40
2022-12-18T16:47:04.608Z,6.53
2022-12-18T16:49:52.699Z,6.30
2022-12-18T16:52:38.232Z,8.75
2022-12-18T16:55:23.395Z,6.55
2022-12-18T16:58:08.364Z,7.00
2022-12-18T17:00:53.159Z,7.63
2022-12-18T17:03:38.641Z,9.02
2022-12-18T17:06:25.503Z,9.32
2022-12-18T17:09:16.100Z,7.75
2022-12-18T17:12:04.168Z,7.72
2022-12-18T17:14:49.734Z,6.70
2022-12-18T17:17:36.455Z,7.32
2022-12-18T17:20:21.269Z,6.07
2022-12-18T17:23:06.083Z,4.70
2022-12-18T17:25:56.322Z,6.03
2022-12-18T17:28:41.519Z,8.73
2022-12-18T17:31:28.624Z,8.65
2022-12-18T17:34:14.385Z,4.75
2022-12-18T17:36:59.531Z,8.77
2022-12-18T17:39:44.727Z,9.45
2022-12-18T17:42:30.029Z,5.63
2022-12-18T17:45:15.259Z,6.93
2022-12-18T17:48:00.261Z,8.40
2022-12-18T17:50:45.745Z,10.00
2022-12-18T17:53:31.034Z,9.50
2022-12-18T17:56:18.289Z,4.60
2022-12-18T17:59:03.628Z,3.10
2022-12-18T18:01:49.027Z,2.80
2022-12-18T18:04:33.820Z,7.88
2022-12-18T18:07:19.021Z,7.68
2022-12-18T18:10:04.702Z,9.17
2022-12-18T18:13:08.158Z,7.57
2022-12-18T18:15:57.517Z,8.95
2022-12-18T18:18:42.547Z,7.75
2022-12-18T18:21:28.580Z,4.80
2022-12-18T18:24:16.635Z,7.57
2022-12-18T18:27:01.645Z,8.82
2022-12-18T18:29:46.704Z,5.90
2022-12-18T18:32:31.801Z,8.18
2022-12-18T18:35:51.907Z,7.70
2022-12-18T18:38:21.945Z,10.10
2022-12-18T18:41:07.199Z,7.15
2022-12-18T18:43:56.646Z,9.63
2022-12-18T18:46:41.620Z,9.55
2022-12-18T18:49:28.274Z,3.63
2022-12-18T18:52:13.001Z,6.20
2022-12-18T18:55:12.947Z,9.82
2022-12-18T18:57:58.517Z,5.70
2022-12-18T19:00:45.113Z,5.75
2022-12-18T19:03:32.239Z,4.47
2022-12-18T19:06:23.826Z,7.57
2022-12-18T19:09:09.730Z,7.93
2022-12-18T19:12:13.279Z,7.13
2022-12-18T19:14:58.420Z,9.85
2022-12-18T19:17:44.777Z,9.90
2022-12-18T19:20:32.111Z,9.50
2022-12-18T19:23:17.296Z,10.55
2022-12-18T19:26:26.907Z,9.35
2022-12-18T19:29:10.813Z,7.75
2022-12-18T19:31:55.929Z,9.13
2022-12-18T19:34:41.852Z,8.63
2022-12-18T19:37:28.274Z,7.53
2022-12-18T19:40:13.832Z,10.85
2022-12-18T19:42:58.574Z,9.65
2022-12-18T19:45:44.185Z,10.43
2022-12-18T19:48:29.003Z,9.70
2022-12-18T19:51:17.553Z,5.20
2022-12-18T19:54:02.692Z,4.32
2022-12-18T19:56:47.523Z,7.85
2022-12-18T19:59:32.596Z,9.52
2022-12-18T20:02:18.903Z,7.60
2022-12-18T20:05:06.572Z,5.60
2022-12-18T20:07:53.055Z,6.35
2022-12-18T20:10:38.151Z,11.48
2022-12-18T20:13:23.326Z,10.40
2022-12-18T20:16:08.743Z,10.50
2022-12-18T20:18:55.098Z,4.60
2022-12-18T20:21:41.315Z,6.75
2022-12-18T20:24:26.909Z,10.75
2022-12-18T20:27:16.142Z,11.77
2022-12-18T20:30:03.468Z,11.10
2022-12-18T20:32:48.577Z,8.95
2022-12-18T20:35:33.667Z,5.90
2022-12-18T20:38:18.542Z,4.40
2022-12-18T20:41:16.216Z,6.05
2022-12-18T20:44:01.209Z,10.63
2022-12-18T20:46:46.263Z,10.27
2022-12-18T20:49:31.650Z,9.40
2022-12-18T20:52:16.447Z,8.45
2022-12-18T20:55:05.090Z,9.48
2022-12-18T20:57:50.344Z,9.50
2022-12-18T21:00:35.273Z,7.03
2022-12-18T21:03:20.089Z,12.20
2022-12-18T21:06:05.034Z,10.20
2022-12-18T21:08:50.244Z,9.15
2022-12-18T21:11:53.597Z,5.87
2022-12-18T21:14:38.557Z,10.45
2022-12-18T21:17:23.698Z,5.47
2022-12-18T21:20:11.275Z,10.52
2022-12-18T21:23:08.931Z,9.27
2022-12-18T21:26:22.925Z,8.83
2022-12-18T21:29:11.787Z,9.90
2022-12-18T21:31:56.822Z,9.35
2022-12-18T21:34:46.225Z,10.55
2022-12-18T21:37:33.080Z,9.65
2022-12-18T21:40:18.340Z,9.77
2022-12-18T21:43:22.242Z,9.75
2022-12-18T21:46:07.498Z,9.38
2022-12-18T21:48:52.534Z,11.35
2022-12-18T21:51:37.835Z,11.07
2022-12-18T21:54:23.598Z,9.40
2022-12-18T21:57:08.568Z,10.70
2022-12-18T21:59:53.606Z,10.65
2022-12-18T22:02:38.995Z,12.45
2022-12-18T22:05:24.077Z,13.25
2022-12-18T22:08:09.027Z,9.30
2022-12-18T22:10:54.105Z,10.13
2022-12-18T22:13:39.519Z,10.55
2022-12-18T22:16:24.840Z,9.68
2022-12-18T22:19:11.001Z,9.45
2022-12-18T22:21:56.294Z,10.20
2022-12-18T22:24:41.300Z,4.60
2022-12-18T22:27:26.581Z,9.68
2022-12-18T22:30:14.318Z,11.93
2022-12-18T22:32:59.523Z,10.43
2022-12-18T22:35:44.822Z,10.37
2022-12-18T22:38:29.945Z,10.35
2022-12-18T22:41:15.291Z,10.15
2022-12-18T22:44:00.308Z,10.93
2022-12-18T22:46:58.284Z,10.43
2022-12-18T22:49:50.792Z,9.37
2022-12-18T22:52:35.890Z,10.80
2022-12-18T22:55:20.985Z,8.55
2022-12-18T22:58:05.956Z,6.70
2022-12-18T23:00:51.098Z,10.98
2022-12-18T23:03:36.297Z,7.30
2022-12-18T23:06:23.298Z,5.93
2022-12-18T23:09:18.003Z,10.00
2022-12-18T23:12:03.697Z,11.32
2022-12-18T23:14:48.851Z,10.15
2022-12-18T23:17:33.956Z,9.97
2022-12-18T23:20:19.062Z,10.45
2022-12-18T23:23:03.935Z,9.35
2022-12-18T23:25:48.845Z,8.43
2022-12-18T23:28:35.070Z,9.93
2022-12-18T23:31:26.314Z,6.63
2022-12-18T23:34:13.637Z,7.95
2022-12-18T23:36:58.433Z,9.27
2022-12-18T23:39:43.486Z,8.68
2022-12-18T23:42:28.685Z,8.98
2022-12-18T23:45:17.982Z,8.73
2022-12-18T23:48:03.170Z,10.75
2022-12-18T23:50:48.034Z,5.53
2022-12-18T23:53:33.257Z,9.50
2022-12-18T23:56:18.371Z,3.95
2022-12-18T23:59:03.305Z,10.80
